sensor_id;sensor_type;location;lat;lon;timestamp;P1;durP1;ratioP1;P2;durP2;ratioP2
59702;SDS011;45570;48.782;8.332;2023-03-21T00:01:10;5.90;;;3.65;;
59702;SDS011;45570;48.782;8.332;2023-03-21T00:03:40;4.28;;;3.10;;
59702;SDS011;45570;48.782;8.332;2023-03-21T00:06:11;5.82;;;3.50;;
59702;SDS011;45570;48.782;8.332;2023-03-21T00:08:40;6.88;;;3.78;;
59702;SDS011;45570;48.782;8.332;2023-03-21T00:11:09;8.40;;;3.67;;
59702;SDS011;45570;48.782;8.332;2023-03-21T00:13:40;8.63;;;3.78;;
59702;SDS011;45570;48.782;8.332;2023-03-21T00:16:10;5.20;;;3.40;;
59702;SDS011;45570;48.782;8.332;2023-03-21T00:18:53;6.85;;;3.83;;
59702;SDS011;45570;48.782;8.332;2023-03-21T00:21:23;5.78;;;3.38;;
59702;SDS011;45570;48.782;8.332;2023-03-21T00:24:14;7.63;;;3.45;;
59702;SDS011;45570;48.782;8.332;2023-03-21T00:26:42;5.85;;;3.50;;
59702;SDS011;45570;48.782;8.332;2023-03-21T00:29:13;5.85;;;3.17;;
59702;SDS011;45570;48.782;8.332;2023-03-21T00:31:44;6.70;;;3.20;;
59702;SDS011;45570;48.782;8.332;2023-03-21T00:34:12;4.95;;;3.55;;
59702;SDS011;45570;48.782;8.332;2023-03-21T00:36:48;3.50;;;3.08;;
59702;SDS011;45570;48.782;8.332;2023-03-21T00:39:17;4.75;;;3.20;;
59702;SDS011;45570;48.782;8.332;2023-03-21T00:41:45;3.35;;;2.97;;
59702;SDS011;45570;48.782;8.332;2023-03-21T00:44:17;4.30;;;3.38;;
59702;SDS011;45570;48.782;8.332;2023-03-21T00:46:46;4.88;;;3.88;;
59702;SDS011;45570;48.782;8.332;2023-03-21T00:49:33;4.28;;;3.28;;
59702;SDS011;45570;48.782;8.332;2023-03-21T00:52:04;8.73;;;3.08;;
59702;SDS011;45570;48.782;8.332;2023-03-21T00:54:45;3.53;;;2.75;;
59702;SDS011;45570;48.782;8.332;2023-03-21T00:57:14;4.35;;;2.70;;
59702;SDS011;45570;48.782;8.332;2023-03-21T00:59:47;4.47;;;2.70;;
59702;SDS011;45570;48.782;8.332;2023-03-21T01:02:15;4.82;;;3.22;;
59702;SDS011;45570;48.782;8.332;2023-03-21T01:04:48;6.03;;;2.63;;
59702;SDS011;45570;48.782;8.332;2023-03-21T01:07:17;2.67;;;2.35;;
59702;SDS011;45570;48.782;8.332;2023-03-21T01:09:45;3.95;;;3.15;;
59702;SDS011;45570;48.782;8.332;2023-03-21T01:12:17;3.90;;;2.95;;
59702;SDS011;45570;48.782;8.332;2023-03-21T01:14:47;7.80;;;3.88;;
59702;SDS011;45570;48.782;8.332;2023-03-21T01:17:15;3.60;;;2.97;;
59702;SDS011;45570;48.782;8.332;2023-03-21T01:19:43;3.40;;;2.97;;
59702;SDS011;45570;48.782;8.332;2023-03-21T01:22:18;4.88;;;2.83;;
59702;SDS011;45570;48.782;8.332;2023-03-21T01:24:47;6.72;;;3.05;;
59702;SDS011;45570;48.782;8.332;2023-03-21T01:27:23;7.18;;;3.22;;
59702;SDS011;45570;48.782;8.332;2023-03-21T01:29:54;8.93;;;3.15;;
59702;SDS011;45570;48.782;8.332;2023-03-21T01:32:24;5.20;;;3.22;;
59702;SDS011;45570;48.782;8.332;2023-03-21T01:34:53;6.00;;;2.85;;
59702;SDS011;45570;48.782;8.332;2023-03-21T01:37:21;4.60;;;2.90;;
59702;SDS011;45570;48.782;8.332;2023-03-21T01:39:52;9.50;;;2.92;;
59702;SDS011;45570;48.782;8.332;2023-03-21T01:42:21;4.35;;;2.67;;
59702;SDS011;45570;48.782;8.332;2023-03-21T01:44:55;3.53;;;2.85;;
59702;SDS011;45570;48.782;8.332;2023-03-21T01:47:33;4.03;;;2.50;;
59702;SDS011;45570;48.782;8.332;2023-03-21T01:50:22;3.45;;;2.58;;
59702;SDS011;45570;48.782;8.332;2023-03-21T01:53:11;5.35;;;3.28;;
59702;SDS011;45570;48.782;8.332;2023-03-21T01:55:41;7.03;;;3.25;;
59702;SDS011;45570;48.782;8.332;2023-03-21T01:58:20;5.45;;;2.97;;
59702;SDS011;45570;48.782;8.332;2023-03-21T02:01:02;8.38;;;3.80;;
59702;SDS011;45570;48.782;8.332;2023-03-21T02:03:40;5.70;;;3.28;;
59702;SDS011;45570;48.782;8.332;2023-03-21T02:06:47;5.73;;;3.10;;
59702;SDS011;45570;48.782;8.332;2023-03-21T02:09:30;3.65;;;2.67;;
59702;SDS011;45570;48.782;8.332;2023-03-21T02:12:04;6.93;;;3.17;;
59702;SDS011;45570;48.782;8.332;2023-03-21T02:14:34;5.30;;;3.13;;
59702;SDS011;45570;48.782;8.332;2023-03-21T02:17:16;3.40;;;2.67;;
59702;SDS011;45570;48.782;8.332;2023-03-21T02:23:10;4.53;;;2.88;;
59702;SDS011;45570;48.782;8.332;2023-03-21T02:33:02;8.15;;;2.95;;
59702;SDS011;45570;48.782;8.332;2023-03-21T02:38:33;3.38;;;2.53;;
59702;SDS011;45570;48.782;8.332;2023-03-21T02:41:08;6.80;;;2.55;;
59702;SDS011;45570;48.782;8.332;2023-03-21T02:43:47;2.63;;;2.33;;
59702;SDS011;45570;48.782;8.332;2023-03-21T02:46:21;4.82;;;2.67;;
59702;SDS011;45570;48.782;8.332;2023-03-21T02:49:10;2.65;;;2.45;;
59702;SDS011;45570;48.782;8.332;2023-03-21T02:51:42;4.60;;;2.50;;
59702;SDS011;45570;48.782;8.332;2023-03-21T02:54:16;3.80;;;2.35;;
59702;SDS011;45570;48.782;8.332;2023-03-21T02:57:04;2.67;;;2.30;;
59702;SDS011;45570;48.782;8.332;2023-03-21T02:59:34;2.80;;;2.40;;
59702;SDS011;45570;48.782;8.332;2023-03-21T03:02:25;4.13;;;2.80;;
59702;SDS011;45570;48.782;8.332;2023-03-21T03:04:55;4.47;;;2.67;;
59702;SDS011;45570;48.782;8.332;2023-03-21T03:07:28;2.85;;;1.90;;
59702;SDS011;45570;48.782;8.332;2023-03-21T03:10:13;5.07;;;2.40;;
59702;SDS011;45570;48.782;8.332;2023-03-21T03:12:57;3.95;;;2.20;;
59702;SDS011;45570;48.782;8.332;2023-03-21T03:15:35;5.50;;;2.10;;
59702;SDS011;45570;48.782;8.332;2023-03-21T03:18:12;6.30;;;2.15;;
59702;SDS011;45570;48.782;8.332;2023-03-21T03:20:49;4.85;;;2.85;;
59702;SDS011;45570;48.782;8.332;2023-03-21T03:23:27;2.63;;;2.40;;
59702;SDS011;45570;48.782;8.332;2023-03-21T03:26:03;5.90;;;2.50;;
59702;SDS011;45570;48.782;8.332;2023-03-21T03:28:36;4.13;;;2.80;;
59702;SDS011;45570;48.782;8.332;2023-03-21T03:31:13;3.55;;;2.13;;
59702;SDS011;45570;48.782;8.332;2023-03-21T03:33:52;3.30;;;2.20;;
59702;SDS011;45570;48.782;8.332;2023-03-21T03:36:26;3.58;;;2.03;;
59702;SDS011;45570;48.782;8.332;2023-03-21T03:39:10;3.22;;;2.60;;
59702;SDS011;45570;48.782;8.332;2023-03-21T03:41:57;4.13;;;2.28;;
59702;SDS011;45570;48.782;8.332;2023-03-21T03:44:54;3.20;;;2.30;;
59702;SDS011;45570;48.782;8.332;2023-03-21T03:47:25;3.45;;;2.38;;
59702;SDS011;45570;48.782;8.332;2023-03-21T03:50:11;4.20;;;2.42;;
59702;SDS011;45570;48.782;8.332;2023-03-21T03:52:46;4.47;;;2.10;;
59702;SDS011;45570;48.782;8.332;2023-03-21T03:55:26;5.28;;;2.30;;
59702;SDS011;45570;48.782;8.332;2023-03-21T03:58:11;2.47;;;2.15;;
59702;SDS011;45570;48.782;8.332;2023-03-21T04:00:50;7.65;;;2.08;;
59702;SDS011;45570;48.782;8.332;2023-03-21T04:03:19;3.72;;;2.42;;
59702;SDS011;45570;48.782;8.332;2023-03-21T04:05:49;3.35;;;2.30;;
59702;SDS011;45570;48.782;8.332;2023-03-21T04:08:18;2.72;;;2.25;;
59702;SDS011;45570;48.782;8.332;2023-03-21T04:10:53;3.45;;;2.30;;
59702;SDS011;45570;48.782;8.332;2023-03-21T04:13:23;3.67;;;1.88;;
59702;SDS011;45570;48.782;8.332;2023-03-21T04:16:02;3.72;;;2.35;;
59702;SDS011;45570;48.782;8.332;2023-03-21T04:18:31;2.60;;;2.30;;
59702;SDS011;45570;48.782;8.332;2023-03-21T04:21:00;2.38;;;1.83;;
59702;SDS011;45570;48.782;8.332;2023-03-21T04:23:29;5.72;;;2.22;;
59702;SDS011;45570;48.782;8.332;2023-03-21T04:25:58;3.15;;;2.30;;
59702;SDS011;45570;48.782;8.332;2023-03-21T04:28:38;2.65;;;2.08;;
59702;SDS011;45570;48.782;8.332;2023-03-21T04:31:28;2.55;;;2.05;;
59702;SDS011;45570;48.782;8.332;2023-03-21T04:34:07;2.25;;;1.88;;
59702;SDS011;45570;48.782;8.332;2023-03-21T04:36:43;3.80;;;2.00;;
59702;SDS011;45570;48.782;8.332;2023-03-21T04:39:13;6.18;;;2.65;;
59702;SDS011;45570;48.782;8.332;2023-03-21T04:41:45;3.38;;;2.13;;
59702;SDS011;45570;48.782;8.332;2023-03-21T04:44:16;5.07;;;2.38;;
59702;SDS011;45570;48.782;8.332;2023-03-21T04:46:45;2.78;;;2.40;;
59702;SDS011;45570;48.782;8.332;2023-03-21T04:49:14;4.50;;;2.45;;
59702;SDS011;45570;48.782;8.332;2023-03-21T04:51:44;2.83;;;2.47;;
59702;SDS011;45570;48.782;8.332;2023-03-21T04:54:18;3.38;;;1.98;;
59702;SDS011;45570;48.782;8.332;2023-03-21T04:56:47;2.83;;;1.83;;
59702;SDS011;45570;48.782;8.332;2023-03-21T04:59:19;5.07;;;2.20;;
59702;SDS011;45570;48.782;8.332;2023-03-21T05:01:47;5.53;;;2.40;;
59702;SDS011;45570;48.782;8.332;2023-03-21T05:04:16;4.53;;;2.40;;
59702;SDS011;45570;48.782;8.332;2023-03-21T05:06:45;4.07;;;2.30;;
59702;SDS011;45570;48.782;8.332;2023-03-21T05:09:14;3.33;;;2.50;;
59702;SDS011;45570;48.782;8.332;2023-03-21T05:11:43;2.83;;;2.50;;
59702;SDS011;45570;48.782;8.332;2023-03-21T05:14:14;3.75;;;2.65;;
59702;SDS011;45570;48.782;8.332;2023-03-21T05:16:46;3.15;;;2.38;;
59702;SDS011;45570;48.782;8.332;2023-03-21T05:19:20;2.72;;;2.25;;
59702;SDS011;45570;48.782;8.332;2023-03-21T05:21:51;6.70;;;2.58;;
59702;SDS011;45570;48.782;8.332;2023-03-21T05:24:24;8.57;;;2.58;;
59702;SDS011;45570;48.782;8.332;2023-03-21T05:26:53;5.72;;;2.60;;
59702;SDS011;45570;48.782;8.332;2023-03-21T05:29:30;4.95;;;2.35;;
59702;SDS011;45570;48.782;8.332;2023-03-21T05:32:04;2.92;;;2.58;;
59702;SDS011;45570;48.782;8.332;2023-03-21T05:34:32;4.22;;;2.05;;
59702;SDS011;45570;48.782;8.332;2023-03-21T05:37:01;3.88;;;2.42;;
59702;SDS011;45570;48.782;8.332;2023-03-21T05:39:43;3.60;;;2.42;;
59702;SDS011;45570;48.782;8.332;2023-03-21T05:42:19;6.75;;;2.50;;
59702;SDS011;45570;48.782;8.332;2023-03-21T05:44:48;6.50;;;2.53;;
59702;SDS011;45570;48.782;8.332;2023-03-21T05:47:23;5.65;;;3.47;;
59702;SDS011;45570;48.782;8.332;2023-03-21T05:49:53;4.70;;;2.55;;
59702;SDS011;45570;48.782;8.332;2023-03-21T05:52:22;4.88;;;2.30;;
59702;SDS011;45570;48.782;8.332;2023-03-21T05:54:51;4.68;;;2.22;;
59702;SDS011;45570;48.782;8.332;2023-03-21T05:57:22;2.80;;;2.30;;
59702;SDS011;45570;48.782;8.332;2023-03-21T06:00:01;4.57;;;2.28;;
59702;SDS011;45570;48.782;8.332;2023-03-21T06:02:42;3.55;;;2.05;;
59702;SDS011;45570;48.782;8.332;2023-03-21T06:05:40;8.23;;;2.13;;
59702;SDS011;45570;48.782;8.332;2023-03-21T06:08:20;2.30;;;2.10;;
59702;SDS011;45570;48.782;8.332;2023-03-21T06:10:49;3.45;;;1.85;;
59702;SDS011;45570;48.782;8.332;2023-03-21T06:13:18;4.22;;;2.08;;
59702;SDS011;45570;48.782;8.332;2023-03-21T06:15:47;6.70;;;2.20;;
59702;SDS011;45570;48.782;8.332;2023-03-21T06:18:21;3.63;;;2.33;;
59702;SDS011;45570;48.782;8.332;2023-03-21T06:20:59;3.33;;;2.10;;
59702;SDS011;45570;48.782;8.332;2023-03-21T06:23:28;4.13;;;2.20;;
59702;SDS011;45570;48.782;8.332;2023-03-21T06:25:57;4.13;;;2.10;;
59702;SDS011;45570;48.782;8.332;2023-03-21T06:28:26;3.35;;;2.20;;
59702;SDS011;45570;48.782;8.332;2023-03-21T06:30:54;5.55;;;2.15;;
59702;SDS011;45570;48.782;8.332;2023-03-21T06:33:26;6.68;;;2.47;;
59702;SDS011;45570;48.782;8.332;2023-03-21T06:35:56;5.00;;;3.13;;
59702;SDS011;45570;48.782;8.332;2023-03-21T06:38:27;3.00;;;2.15;;
59702;SDS011;45570;48.782;8.332;2023-03-21T06:40:56;3.90;;;2.10;;
59702;SDS011;45570;48.782;8.332;2023-03-21T06:43:29;2.92;;;1.98;;
59702;SDS011;45570;48.782;8.332;2023-03-21T06:46:01;5.75;;;1.77;;
59702;SDS011;45570;48.782;8.332;2023-03-21T06:48:31;10.88;;;2.00;;
59702;SDS011;45570;48.782;8.332;2023-03-21T06:51:00;3.28;;;1.80;;
59702;SDS011;45570;48.782;8.332;2023-03-21T06:53:31;6.53;;;2.35;;
59702;SDS011;45570;48.782;8.332;2023-03-21T06:56:21;3.95;;;2.15;;
59702;SDS011;45570;48.782;8.332;2023-03-21T06:58:50;3.05;;;2.00;;
59702;SDS011;45570;48.782;8.332;2023-03-21T07:01:42;3.10;;;2.20;;
59702;SDS011;45570;48.782;8.332;2023-03-21T07:04:13;6.32;;;2.08;;
59702;SDS011;45570;48.782;8.332;2023-03-21T07:06:42;6.22;;;2.17;;
59702;SDS011;45570;48.782;8.332;2023-03-21T07:09:11;5.30;;;2.78;;
59702;SDS011;45570;48.782;8.332;2023-03-21T07:11:40;4.05;;;2.30;;
59702;SDS011;45570;48.782;8.332;2023-03-21T07:14:09;8.15;;;2.85;;
59702;SDS011;45570;48.782;8.332;2023-03-21T07:16:38;6.65;;;2.67;;
59702;SDS011;45570;48.782;8.332;2023-03-21T07:19:06;4.15;;;2.35;;
59702;SDS011;45570;48.782;8.332;2023-03-21T07:21:36;2.45;;;2.08;;
59702;SDS011;45570;48.782;8.332;2023-03-21T07:24:05;3.33;;;2.20;;
59702;SDS011;45570;48.782;8.332;2023-03-21T07:26:34;3.33;;;2.15;;
59702;SDS011;45570;48.782;8.332;2023-03-21T07:29:04;5.55;;;1.90;;
59702;SDS011;45570;48.782;8.332;2023-03-21T07:31:32;3.33;;;1.95;;
59702;SDS011;45570;48.782;8.332;2023-03-21T07:34:02;3.80;;;2.30;;
59702;SDS011;45570;48.782;8.332;2023-03-21T07:36:31;5.28;;;3.10;;
59702;SDS011;45570;48.782;8.332;2023-03-21T07:39:01;2.05;;;1.85;;
59702;SDS011;45570;48.782;8.332;2023-03-21T07:41:30;3.45;;;2.30;;
59702;SDS011;45570;48.782;8.332;2023-03-21T07:44:10;3.17;;;1.80;;
59702;SDS011;45570;48.782;8.332;2023-03-21T07:46:39;3.72;;;2.10;;
59702;SDS011;45570;48.782;8.332;2023-03-21T07:49:07;5.25;;;2.70;;
59702;SDS011;45570;48.782;8.332;2023-03-21T07:51:36;4.22;;;1.90;;
59702;SDS011;45570;48.782;8.332;2023-03-21T07:54:06;4.93;;;2.22;;
59702;SDS011;45570;48.782;8.332;2023-03-21T07:56:35;5.28;;;2.47;;
59702;SDS011;45570;48.782;8.332;2023-03-21T07:59:03;5.28;;;2.20;;
59702;SDS011;45570;48.782;8.332;2023-03-21T08:01:32;2.50;;;1.90;;
59702;SDS011;45570;48.782;8.332;2023-03-21T08:04:01;2.58;;;1.90;;
59702;SDS011;45570;48.782;8.332;2023-03-21T08:06:30;4.95;;;2.13;;
59702;SDS011;45570;48.782;8.332;2023-03-21T08:08:58;4.57;;;2.28;;
59702;SDS011;45570;48.782;8.332;2023-03-21T08:11:30;5.35;;;1.90;;
59702;SDS011;45570;48.782;8.332;2023-03-21T08:13:59;1.98;;;1.70;;
59702;SDS011;45570;48.782;8.332;2023-03-21T08:16:28;3.10;;;1.90;;
59702;SDS011;45570;48.782;8.332;2023-03-21T08:18:56;2.50;;;1.70;;
59702;SDS011;45570;48.782;8.332;2023-03-21T08:21:25;2.10;;;1.50;;
59702;SDS011;45570;48.782;8.332;2023-03-21T08:23:54;1.60;;;1.50;;
59702;SDS011;45570;48.782;8.332;2023-03-21T08:26:22;2.00;;;1.58;;
59702;SDS011;45570;48.782;8.332;2023-03-21T08:28:53;3.03;;;1.42;;
59702;SDS011;45570;48.782;8.332;2023-03-21T08:31:22;1.35;;;1.25;;
59702;SDS011;45570;48.782;8.332;2023-03-21T08:33:51;2.17;;;1.55;;
59702;SDS011;45570;48.782;8.332;2023-03-21T08:36:21;3.33;;;1.67;;
59702;SDS011;45570;48.782;8.332;2023-03-21T08:38:49;2.67;;;1.60;;
59702;SDS011;45570;48.782;8.332;2023-03-21T08:41:22;5.68;;;2.20;;
59702;SDS011;45570;48.782;8.332;2023-03-21T08:43:51;2.83;;;1.50;;
59702;SDS011;45570;48.782;8.332;2023-03-21T08:46:21;3.10;;;1.67;;
59702;SDS011;45570;48.782;8.332;2023-03-21T08:48:50;5.47;;;1.73;;
59702;SDS011;45570;48.782;8.332;2023-03-21T08:51:19;3.65;;;1.88;;
59702;SDS011;45570;48.782;8.332;2023-03-21T08:53:47;4.65;;;1.88;;
59702;SDS011;45570;48.782;8.332;2023-03-21T08:56:16;3.35;;;1.90;;
59702;SDS011;45570;48.782;8.332;2023-03-21T08:58:45;3.17;;;1.88;;
59702;SDS011;45570;48.782;8.332;2023-03-21T09:01:15;4.68;;;2.30;;
59702;SDS011;45570;48.782;8.332;2023-03-21T09:03:45;5.47;;;3.05;;
59702;SDS011;45570;48.782;8.332;2023-03-21T09:06:14;5.07;;;2.88;;
59702;SDS011;45570;48.782;8.332;2023-03-21T09:08:43;4.30;;;2.97;;
59702;SDS011;45570;48.782;8.332;2023-03-21T09:11:12;6.85;;;2.70;;
59702;SDS011;45570;48.782;8.332;2023-03-21T09:13:41;3.05;;;2.72;;
59702;SDS011;45570;48.782;8.332;2023-03-21T09:16:09;5.47;;;2.55;;
59702;SDS011;45570;48.782;8.332;2023-03-21T09:18:38;5.60;;;2.95;;
59702;SDS011;45570;48.782;8.332;2023-03-21T09:21:16;4.88;;;3.00;;
59702;SDS011;45570;48.782;8.332;2023-03-21T09:23:46;5.43;;;3.53;;
59702;SDS011;45570;48.782;8.332;2023-03-21T09:26:18;6.20;;;3.35;;
59702;SDS011;45570;48.782;8.332;2023-03-21T09:28:47;5.22;;;3.65;;
59702;SDS011;45570;48.782;8.332;2023-03-21T09:31:16;5.07;;;3.10;;
59702;SDS011;45570;48.782;8.332;2023-03-21T09:33:48;6.20;;;2.80;;
59702;SDS011;45570;48.782;8.332;2023-03-21T09:36:19;8.15;;;3.50;;
59702;SDS011;45570;48.782;8.332;2023-03-21T09:38:50;6.03;;;2.88;;
59702;SDS011;45570;48.782;8.332;2023-03-21T09:41:24;4.93;;;3.17;;
59702;SDS011;45570;48.782;8.332;2023-03-21T09:44:04;3.60;;;2.88;;
59702;SDS011;45570;48.782;8.332;2023-03-21T09:46:42;8.43;;;3.45;;
59702;SDS011;45570;48.782;8.332;2023-03-21T09:49:17;6.05;;;3.70;;
59702;SDS011;45570;48.782;8.332;2023-03-21T09:51:50;4.80;;;3.00;;
59702;SDS011;45570;48.782;8.332;2023-03-21T09:54:22;7.28;;;4.00;;
59702;SDS011;45570;48.782;8.332;2023-03-21T09:56:55;5.72;;;3.78;;
59702;SDS011;45570;48.782;8.332;2023-03-21T09:59:30;6.13;;;4.28;;
59702;SDS011;45570;48.782;8.332;2023-03-21T10:02:06;6.20;;;3.42;;
59702;SDS011;45570;48.782;8.332;2023-03-21T10:04:49;8.40;;;4.22;;
59702;SDS011;45570;48.782;8.332;2023-03-21T10:07:19;10.88;;;4.40;;
59702;SDS011;45570;48.782;8.332;2023-03-21T10:09:49;7.45;;;4.55;;
59702;SDS011;45570;48.782;8.332;2023-03-21T10:12:19;9.50;;;4.65;;
59702;SDS011;45570;48.782;8.332;2023-03-21T10:14:50;7.85;;;3.67;;
59702;SDS011;45570;48.782;8.332;2023-03-21T10:17:24;7.43;;;4.00;;
59702;SDS011;45570;48.782;8.332;2023-03-21T10:19:59;11.27;;;4.75;;
59702;SDS011;45570;48.782;8.332;2023-03-21T10:22:39;6.80;;;4.32;;
59702;SDS011;45570;48.782;8.332;2023-03-21T10:25:10;6.63;;;3.95;;
59702;SDS011;45570;48.782;8.332;2023-03-21T10:27:42;7.53;;;4.53;;
59702;SDS011;45570;48.782;8.332;2023-03-21T10:30:24;7.13;;;4.53;;
59702;SDS011;45570;48.782;8.332;2023-03-21T10:32:57;6.47;;;3.50;;
59702;SDS011;45570;48.782;8.332;2023-03-21T10:35:31;7.63;;;4.07;;
59702;SDS011;45570;48.782;8.332;2023-03-21T10:38:04;9.07;;;4.00;;
59702;SDS011;45570;48.782;8.332;2023-03-21T10:40:34;10.82;;;4.07;;
59702;SDS011;45570;48.782;8.332;2023-03-21T10:43:19;7.88;;;4.05;;
59702;SDS011;45570;48.782;8.332;2023-03-21T10:46:04;6.18;;;4.20;;
59702;SDS011;45570;48.782;8.332;2023-03-21T10:48:35;6.10;;;3.80;;
59702;SDS011;45570;48.782;8.332;2023-03-21T10:51:06;6.55;;;3.92;;
59702;SDS011;45570;48.782;8.332;2023-03-21T10:53:39;5.45;;;3.20;;
59702;SDS011;45570;48.782;8.332;2023-03-21T10:56:13;8.07;;;3.28;;
59702;SDS011;45570;48.782;8.332;2023-03-21T10:58:43;5.38;;;3.15;;
59702;SDS011;45570;48.782;8.332;2023-03-21T11:01:15;7.07;;;3.83;;
59702;SDS011;45570;48.782;8.332;2023-03-21T11:03:57;3.42;;;2.90;;
59702;SDS011;45570;48.782;8.332;2023-03-21T11:06:28;6.32;;;3.20;;
59702;SDS011;45570;48.782;8.332;2023-03-21T11:09:02;4.47;;;3.40;;
59702;SDS011;45570;48.782;8.332;2023-03-21T11:11:36;6.13;;;3.40;;
59702;SDS011;45570;48.782;8.332;2023-03-21T11:14:07;6.60;;;3.40;;
59702;SDS011;45570;48.782;8.332;2023-03-21T11:17:06;2.63;;;2.35;;
59702;SDS011;45570;48.782;8.332;2023-03-21T11:19:47;9.15;;;2.88;;
59702;SDS011;45570;48.782;8.332;2023-03-21T11:22:18;5.18;;;2.72;;
59702;SDS011;45570;48.782;8.332;2023-03-21T11:24:53;9.18;;;3.00;;
59702;SDS011;45570;48.782;8.332;2023-03-21T11:27:26;4.43;;;2.75;;
59702;SDS011;45570;48.782;8.332;2023-03-21T11:29:56;3.15;;;2.60;;
59702;SDS011;45570;48.782;8.332;2023-03-21T11:32:30;5.63;;;2.60;;
59702;SDS011;45570;48.782;8.332;2023-03-21T11:35:01;9.20;;;2.90;;
59702;SDS011;45570;48.782;8.332;2023-03-21T11:37:33;3.97;;;2.72;;
59702;SDS011;45570;48.782;8.332;2023-03-21T11:40:14;5.38;;;2.60;;
59702;SDS011;45570;48.782;8.332;2023-03-21T11:42:48;6.15;;;2.85;;
59702;SDS011;45570;48.782;8.332;2023-03-21T11:45:19;5.43;;;2.97;;
59702;SDS011;45570;48.782;8.332;2023-03-21T11:47:49;6.55;;;2.75;;
59702;SDS011;45570;48.782;8.332;2023-03-21T11:50:24;6.82;;;2.80;;
59702;SDS011;45570;48.782;8.332;2023-03-21T11:53:04;4.15;;;2.80;;
59702;SDS011;45570;48.782;8.332;2023-03-21T11:55:51;3.10;;;2.80;;
59702;SDS011;45570;48.782;8.332;2023-03-21T11:58:32;5.20;;;2.60;;
59702;SDS011;45570;48.782;8.332;2023-03-21T12:01:12;5.90;;;2.88;;
59702;SDS011;45570;48.782;8.332;2023-03-21T12:03:50;4.03;;;2.90;;
59702;SDS011;45570;48.782;8.332;2023-03-21T12:06:31;4.97;;;3.33;;
59702;SDS011;45570;48.782;8.332;2023-03-21T12:09:07;4.05;;;2.80;;
59702;SDS011;45570;48.782;8.332;2023-03-21T12:11:51;3.47;;;2.90;;
59702;SDS011;45570;48.782;8.332;2023-03-21T12:14:27;3.72;;;2.50;;
59702;SDS011;45570;48.782;8.332;2023-03-21T12:17:04;4.13;;;2.65;;
59702;SDS011;45570;48.782;8.332;2023-03-21T12:19:47;4.93;;;2.75;;
59702;SDS011;45570;48.782;8.332;2023-03-21T12:22:34;3.42;;;2.35;;
59702;SDS011;45570;48.782;8.332;2023-03-21T12:25:13;3.00;;;2.40;;
59702;SDS011;45570;48.782;8.332;2023-03-21T12:27:47;3.05;;;2.13;;
59702;SDS011;45570;48.782;8.332;2023-03-21T12:30:31;4.82;;;2.28;;
59702;SDS011;45570;48.782;8.332;2023-03-21T12:33:11;4.68;;;2.90;;
59702;SDS011;45570;48.782;8.332;2023-03-21T12:36:01;4.25;;;2.08;;
59702;SDS011;45570;48.782;8.332;2023-03-21T12:38:43;6.80;;;2.97;;
59702;SDS011;45570;48.782;8.332;2023-03-21T12:41:22;4.07;;;2.35;;
59702;SDS011;45570;48.782;8.332;2023-03-21T12:43:57;3.45;;;1.85;;
59702;SDS011;45570;48.782;8.332;2023-03-21T12:46:31;3.13;;;2.10;;
59702;SDS011;45570;48.782;8.332;2023-03-21T12:49:07;3.88;;;1.80;;
59702;SDS011;45570;48.782;8.332;2023-03-21T12:51:41;3.70;;;2.65;;
59702;SDS011;45570;48.782;8.332;2023-03-21T12:54:13;2.95;;;1.95;;
59702;SDS011;45570;48.782;8.332;2023-03-21T12:56:51;1.95;;;1.70;;
59702;SDS011;45570;48.782;8.332;2023-03-21T12:59:28;3.10;;;2.00;;
59702;SDS011;45570;48.782;8.332;2023-03-21T13:02:05;2.28;;;1.63;;
59702;SDS011;45570;48.782;8.332;2023-03-21T13:04:46;1.95;;;1.75;;
59702;SDS011;45570;48.782;8.332;2023-03-21T13:07:26;3.70;;;1.67;;
59702;SDS011;45570;48.782;8.332;2023-03-21T13:09:59;2.90;;;2.08;;
59702;SDS011;45570;48.782;8.332;2023-03-21T13:12:33;4.00;;;1.80;;
59702;SDS011;45570;48.782;8.332;2023-03-21T13:18:36;4.30;;;1.80;;
59702;SDS011;45570;48.782;8.332;2023-03-21T13:21:12;5.28;;;2.40;;
59702;SDS011;45570;48.782;8.332;2023-03-21T13:23:54;3.30;;;1.55;;
59702;SDS011;45570;48.782;8.332;2023-03-21T13:26:33;3.90;;;2.10;;
59702;SDS011;45570;48.782;8.332;2023-03-21T13:29:20;2.13;;;1.80;;
59702;SDS011;45570;48.782;8.332;2023-03-21T13:31:51;1.95;;;1.85;;
59702;SDS011;45570;48.782;8.332;2023-03-21T13:34:24;3.80;;;1.70;;
59702;SDS011;45570;48.782;8.332;2023-03-21T13:36:54;3.22;;;1.67;;
59702;SDS011;45570;48.782;8.332;2023-03-21T13:39:24;3.30;;;1.60;;
59702;SDS011;45570;48.782;8.332;2023-03-21T13:42:00;4.18;;;1.80;;
59702;SDS011;45570;48.782;8.332;2023-03-21T13:44:35;3.00;;;1.50;;
59702;SDS011;45570;48.782;8.332;2023-03-21T13:47:21;2.75;;;1.70;;
59702;SDS011;45570;48.782;8.332;2023-03-21T13:53:22;2.63;;;2.08;;
59702;SDS011;45570;48.782;8.332;2023-03-21T13:56:13;4.15;;;1.50;;
59702;SDS011;45570;48.782;8.332;2023-03-21T14:01:40;4.28;;;1.40;;
59702;SDS011;45570;48.782;8.332;2023-03-21T14:04:25;1.88;;;1.48;;
59702;SDS011;45570;48.782;8.332;2023-03-21T14:07:14;2.00;;;1.80;;
59702;SDS011;45570;48.782;8.332;2023-03-21T14:09:50;3.30;;;2.27;;
59702;SDS011;45570;48.782;8.332;2023-03-21T14:12:21;1.60;;;1.50;;
59702;SDS011;45570;48.782;8.332;2023-03-21T14:14:53;5.13;;;1.52;;
59702;SDS011;45570;48.782;8.332;2023-03-21T14:17:50;5.25;;;1.48;;
59702;SDS011;45570;48.782;8.332;2023-03-21T14:20:23;4.13;;;1.60;;
59702;SDS011;45570;48.782;8.332;2023-03-21T14:22:54;2.30;;;1.70;;
59702;SDS011;45570;48.782;8.332;2023-03-21T14:25:31;2.63;;;1.45;;
59702;SDS011;45570;48.782;8.332;2023-03-21T14:28:13;3.58;;;1.50;;
59702;SDS011;45570;48.782;8.332;2023-03-21T14:30:43;3.78;;;1.13;;
59702;SDS011;45570;48.782;8.332;2023-03-21T14:33:18;2.22;;;1.20;;
59702;SDS011;45570;48.782;8.332;2023-03-21T14:35:50;1.90;;;1.48;;
59702;SDS011;45570;48.782;8.332;2023-03-21T14:38:24;1.42;;;1.27;;
59702;SDS011;45570;48.782;8.332;2023-03-21T14:40:56;2.08;;;1.33;;
59702;SDS011;45570;48.782;8.332;2023-03-21T14:43:24;2.78;;;1.55;;
59702;SDS011;45570;48.782;8.332;2023-03-21T14:45:55;1.20;;;1.10;;
59702;SDS011;45570;48.782;8.332;2023-03-21T14:48:27;1.90;;;1.25;;
59702;SDS011;45570;48.782;8.332;2023-03-21T14:51:00;3.35;;;1.13;;
59702;SDS011;45570;48.782;8.332;2023-03-21T14:53:32;1.88;;;1.67;;
59702;SDS011;45570;48.782;8.332;2023-03-21T14:56:08;1.88;;;1.10;;
59702;SDS011;45570;48.782;8.332;2023-03-21T14:58:44;2.00;;;1.20;;
59702;SDS011;45570;48.782;8.332;2023-03-21T15:01:15;1.30;;;1.20;;
59702;SDS011;45570;48.782;8.332;2023-03-21T15:03:51;2.20;;;1.00;;
59702;SDS011;45570;48.782;8.332;2023-03-21T15:06:20;2.28;;;1.23;;
59702;SDS011;45570;48.782;8.332;2023-03-21T15:08:53;2.97;;;1.30;;
59702;SDS011;45570;48.782;8.332;2023-03-21T15:11:29;3.08;;;1.30;;
59702;SDS011;45570;48.782;8.332;2023-03-21T15:13:59;4.43;;;1.35;;
59702;SDS011;45570;48.782;8.332;2023-03-21T15:16:30;1.98;;;1.40;;
59702;SDS011;45570;48.782;8.332;2023-03-21T15:18:59;1.40;;;1.30;;
59702;SDS011;45570;48.782;8.332;2023-03-21T15:21:31;3.55;;;1.23;;
59702;SDS011;45570;48.782;8.332;2023-03-21T15:24:04;1.95;;;1.52;;
59702;SDS011;45570;48.782;8.332;2023-03-21T15:26:40;2.65;;;1.25;;
59702;SDS011;45570;48.782;8.332;2023-03-21T15:29:12;1.85;;;1.40;;
59702;SDS011;45570;48.782;8.332;2023-03-21T15:31:42;1.92;;;1.38;;
59702;SDS011;45570;48.782;8.332;2023-03-21T15:34:18;2.53;;;1.20;;
59702;SDS011;45570;48.782;8.332;2023-03-21T15:36:48;4.32;;;1.58;;
59702;SDS011;45570;48.782;8.332;2023-03-21T15:39:22;2.88;;;1.40;;
59702;SDS011;45570;48.782;8.332;2023-03-21T15:41:57;3.25;;;1.42;;
59702;SDS011;45570;48.782;8.332;2023-03-21T15:46:56;3.00;;;1.40;;
59702;SDS011;45570;48.782;8.332;2023-03-21T15:49:26;2.20;;;1.45;;
59702;SDS011;45570;48.782;8.332;2023-03-21T15:51:58;2.95;;;1.73;;
59702;SDS011;45570;48.782;8.332;2023-03-21T15:54:32;2.10;;;1.20;;